Airfield :
LOGIN :

Register | Disclaimer

   EN    FR    IT 

 










Legend :    VFR   Marginal VFR   IFR   Intensive IFR   Very Intensive IFR
Visi :
Ceiling :
>= 8 km
>= 3000ft
5 to 8 km
1000 to 3000 ft
1500m to 5 km
500 to 1000 ft
800 to 1500m
200 to 500 ft
< 800m
< 200 ft
Symbols :   Thunderstorms  Fog  Heavy snow  Heavy precipitations  Wind > 20 kt
SIGMETs :     Misc.  Thunderstorms  Icing  Turbulence  Mountain Waves  Volcanic Ashes






- Airport Elevation : 778 ft
- IATA code : BRQ


LKTB - Brno-Turany

CURRENT METAR :
  • 182100Z 23006KT CAVOK 04/M02 Q1024 NOSIG

EXPIRED METARs :
  • 182030Z 21006KT CAVOK 04/M02 Q1025 NOSIG
  • 182000Z 22003KT CAVOK 04/M02 Q1025 NOSIG
  • 181930Z 21005KT CAVOK 03/M02 Q1024 NOSIG
  • 181900Z 21007KT CAVOK 04/M02 Q1024 NOSIG
  • 181830Z 23008KT CAVOK 06/M01 Q1024 NOSIG

TAF TAF LKTB
Valid from the 18 at 18:00 until the 20 at 00:00 UTC


181700Z 1818/2000 27010KT 9999 SCT045
BECMG 1818/1821 19003KT
BECMG 1911/1913 24012KT BKN033
TEMPO 1913/1920 27012G25KT 8000 RA BKN020
PROB30
TEMPO 1915/1918 4000 SHRA SCT012 BKN015CB



MET'MAP, your aeronautical weather chart ! - Copyright ORBIFLY December 2007 - Disclaimer

ORBIFLY MET'MAP TEAM :

Programming & Development : Alexandra Zaïnal
Concept & original design : Baudouin d'Aumeries
Assistance for programming : Marc-Olivier Méhu
Technical & hardware support : Manuel Goepfert

Contact : metmap@orbifly.com




SOURCES & CREDITS :

   NOAA